Time;durP1;ratioP1;P1;durP2;ratioP2;P2;SDS_P1;SDS_P2;PMS_P1;PMS_P2;Temp;Humidity;BMP_temperature;BMP_pressure;BME280_temperature;BME280_humidity;BME280_pressure;Samples;Min_cycle;Max_cycle;Signal;HPM_P1;HPM_P2
2022/07/06 00:01:25;;;;;;;4.40;1.75;;;;;;;-148.88;74.36;76159.13;4997197;28;20423;-75
2022/07/06 00:03:50;;;;;;;5.10;1.77;;;;;;;-148.88;74.89;76169.28;4997081;28;20049;-75
2022/07/06 00:06:17;;;;;;;4.55;1.70;;;;;;;-148.88;75.02;76175.38;4995700;28;20110;-74
2022/07/06 00:08:43;;;;;;;3.40;1.75;;;;;;;-148.88;75.57;76179.44;4995484;28;20387;-73
2022/07/06 00:11:08;;;;;;;5.18;2.20;;;;;;;-148.88;76.22;76191.63;4995532;28;20022;-75
2022/07/06 00:13:33;;;;;;;4.07;1.90;;;;;;;-148.88;76.02;76171.31;4996838;28;20057;-74
2022/07/06 00:15:59;;;;;;;5.13;2.17;;;;;;;-148.88;75.82;76179.44;4996723;28;20026;-74
2022/07/06 00:18:24;;;;;;;4.32;2.10;;;;;;;-148.88;75.32;76181.47;4996730;28;20080;-73
2022/07/06 00:20:49;;;;;;;5.35;2.03;;;;;;;-148.88;75.46;76179.44;4995398;28;20392;-74
2022/07/06 00:23:15;;;;;;;4.28;2.25;;;;;;;-148.88;75.60;76171.31;4995298;28;20030;-74
2022/07/06 00:25:40;;;;;;;6.20;1.90;;;;;;;-148.88;75.81;76175.38;4996673;28;20083;-74
2022/07/06 00:28:05;;;;;;;5.35;2.33;;;;;;;-148.88;75.82;76175.38;4996491;28;20022;-74
2022/07/06 00:30:31;;;;;;;4.15;2.03;;;;;;;-148.88;75.74;76179.44;4996347;28;20476;-75
2022/07/06 00:32:58;;;;;;;3.97;1.90;;;;;;;-148.88;75.82;76175.38;4996427;28;20042;-74
2022/07/06 00:35:24;;;;;;;4.18;2.13;;;;;;;-148.88;75.83;76171.31;4995180;28;20023;-74
2022/07/06 00:37:49;;;;;;;4.75;2.50;;;;;;;-148.88;76.92;76187.56;4996390;28;20080;-74
2022/07/06 00:40:14;;;;;;;6.65;2.80;;;;;;;-148.88;76.90;76183.50;4996731;28;20022;-75
2022/07/06 00:42:45;;;;;;;4.88;2.33;;;;;;;-148.88;78.46;76211.94;4996400;28;20032;-74
2022/07/06 00:45:14;;;;;;;4.80;2.20;;;;;;;-148.88;78.52;76207.88;4996347;28;20030;-73
2022/07/06 00:47:41;;;;;;;3.95;2.25;;;;;;;-148.88;78.12;76203.81;4996249;28;20026;-74
2022/07/06 00:50:14;;;;;;;5.60;2.42;;;;;;;-148.88;78.53;76211.94;4994896;28;20046;-75
2022/07/06 00:52:46;;;;;;;3.80;2.38;;;;;;;-148.88;79.44;76224.13;4996498;28;20022;-74
2022/07/06 00:55:12;;;;;;;3.80;2.10;;;;;;;-148.88;78.94;76207.88;4995961;28;20054;-73
2022/07/06 00:57:38;;;;;;;3.13;2.17;;;;;;;-148.88;78.23;76197.72;4996316;28;20029;-74
2022/07/06 01:00:06;;;;;;;4.05;2.13;;;;;;;-148.88;78.69;76211.94;4995862;28;20395;-74
2022/07/06 01:02:33;;;;;;;6.05;2.30;;;;;;;-148.88;78.53;76205.84;4994892;28;20504;-74
2022/07/06 01:04:58;;;;;;;4.32;2.00;;;;;;;-148.88;78.57;76211.94;4995836;28;20019;-73
2022/07/06 01:07:24;;;;;;;4.72;2.60;;;;;;;-148.88;79.06;76216.00;4994633;28;20026;-73
2022/07/06 01:09:49;;;;;;;4.13;2.20;;;;;;;-148.88;78.55;76222.09;4995650;28;20061;-75
2022/07/06 01:12:15;;;;;;;5.40;2.42;;;;;;;-148.88;78.91;76230.22;4994574;28;20150;-74
2022/07/06 01:14:41;;;;;;;3.63;2.50;;;;;;;-148.88;79.12;76240.38;4995690;28;20056;-74
2022/07/06 01:17:08;;;;;;;4.70;2.38;;;;;;;-148.88;80.13;76252.56;4996184;28;20089;-74
2022/07/06 01:19:33;;;;;;;4.57;2.45;;;;;;;-148.88;80.96;76244.44;4995728;28;20038;-73
2022/07/06 01:21:59;;;;;;;6.45;2.42;;;;;;;-148.88;80.21;76240.38;4995698;28;20022;-73
2022/07/06 01:24:25;;;;;;;4.07;2.15;;;;;;;-148.88;80.32;76236.31;4995565;28;20026;-74
2022/07/06 01:26:50;;;;;;;5.32;2.10;;;;;;;-148.88;80.39;76232.25;4994274;28;20022;-74
2022/07/06 01:29:15;;;;;;;5.80;2.58;;;;;;;-148.88;81.28;76228.19;4994070;28;20030;-73
2022/07/06 01:31:49;;;;;;;4.38;2.60;;;;;;;-148.88;81.33;76234.28;4995300;28;20105;-74
2022/07/06 01:34:18;;;;;;;6.60;2.67;;;;;;;-148.88;80.81;76236.31;4995668;28;20026;-74
2022/07/06 01:36:44;;;;;;;4.20;2.10;;;;;;;-148.88;80.94;76236.31;4994072;28;20022;-73
2022/07/06 01:39:10;;;;;;;5.43;2.83;;;;;;;-148.88;80.48;76234.28;4995357;28;20033;-73
2022/07/06 01:41:36;;;;;;;5.25;2.67;;;;;;;-148.88;80.99;76240.38;4993938;28;20395;-74
2022/07/06 01:44:03;;;;;;;4.30;2.58;;;;;;;-148.88;81.01;76240.38;4995169;28;20484;-74
2022/07/06 01:46:28;;;;;;;3.28;2.55;;;;;;;-148.88;80.64;76240.38;4993886;28;20033;-75
2022/07/06 01:48:54;;;;;;;7.05;2.78;;;;;;;-148.88;80.65;76246.47;4993779;28;20026;-74
2022/07/06 01:51:19;;;;;;;6.43;2.72;;;;;;;-148.88;81.48;76248.50;4993644;28;20558;-73
2022/07/06 01:53:45;;;;;;;3.25;2.50;;;;;;;-148.88;81.58;76260.69;4995078;28;20057;-74
2022/07/06 01:56:10;;;;;;;7.25;2.85;;;;;;;-148.88;82.03;76264.75;4994980;28;20026;-74
2022/07/06 01:58:36;;;;;;;6.53;2.90;;;;;;;-148.88;82.94;76281.00;4994632;28;20102;-73
2022/07/06 02:01:07;;;;;;;6.43;2.83;;;;;;;-148.88;84.07;76299.28;4994814;28;20030;-74
2022/07/06 02:03:32;;;;;;;5.55;2.75;;;;;;;-148.88;83.50;76289.13;4995103;28;20076;-74
2022/07/06 02:05:58;;;;;;;6.22;2.92;;;;;;;-148.88;82.89;76276.94;4994769;28;20026;-74
2022/07/06 02:08:23;;;;;;;5.30;2.90;;;;;;;-148.88;82.98;76264.75;4994746;28;20503;-74
2022/07/06 02:10:48;;;;;;;3.47;2.38;;;;;;;-148.88;83.23;76256.63;4993323;28;20072;-74
2022/07/06 02:13:14;;;;;;;4.85;3.08;;;;;;;-148.88;83.28;76262.72;4994615;28;20080;-74
2022/07/06 02:15:39;;;;;;;7.20;2.90;;;;;;;-148.88;83.16;76268.81;4993096;28;20113;-74
2022/07/06 02:18:04;;;;;;;5.53;2.92;;;;;;;-148.88;83.47;76262.72;4993691;28;20408;-74
2022/07/06 02:20:29;;;;;;;4.78;2.70;;;;;;;-148.88;84.69;76264.75;4994591;28;20507;-74
2022/07/06 02:22:55;;;;;;;5.57;2.90;;;;;;;-148.88;83.76;76256.63;4993281;28;20112;-74
2022/07/06 02:25:20;;;;;;;5.45;3.00;;;;;;;-148.88;84.27;76258.66;4994550;28;20395;-74
2022/07/06 02:27:45;;;;;;;9.75;3.10;;;;;;;-148.88;84.45;76254.59;4994380;28;20041;-73
2022/07/06 02:30:11;;;;;;;6.95;3.17;;;;;;;-148.88;84.02;76254.59;4994220;28;20022;-73
2022/07/06 02:32:36;;;;;;;4.55;2.95;;;;;;;-148.88;84.36;76260.69;4994317;28;20030;-74
2022/07/06 02:35:01;;;;;;;6.20;3.22;;;;;;;-148.88;84.29;76256.63;4992979;28;20022;-73
2022/07/06 02:37:27;;;;;;;5.60;3.33;;;;;;;-148.88;83.67;76252.56;4993108;28;20024;-73
2022/07/06 02:39:52;;;;;;;5.18;3.00;;;;;;;-148.88;83.48;76248.50;4992896;28;20419;-74
2022/07/06 02:42:17;;;;;;;6.35;2.83;;;;;;;-148.88;84.06;76248.50;4992830;28;20109;-74
2022/07/06 02:44:43;;;;;;;4.68;3.30;;;;;;;-148.88;84.27;76252.56;4992920;28;20068;-73
2022/07/06 02:47:08;;;;;;;6.05;3.17;;;;;;;-148.88;84.70;76256.63;4992835;28;20030;-73
2022/07/06 02:49:33;;;;;;;5.10;3.35;;;;;;;-148.88;84.91;76268.81;4994003;28;20058;-74
2022/07/06 02:51:59;;;;;;;6.85;2.97;;;;;;;-148.88;85.34;76272.88;4994108;28;20019;-74
2022/07/06 02:54:24;;;;;;;4.97;3.25;;;;;;;-148.88;86.11;76287.09;4993081;28;20117;-74
2022/07/06 02:56:57;;;;;;;4.82;3.33;;;;;;;-148.88;86.40;76281.00;4992771;28;20027;-74
2022/07/06 02:59:22;;;;;;;6.03;3.42;;;;;;;-148.88;86.05;76289.13;4992616;28;20026;-74
2022/07/06 03:01:47;;;;;;;4.85;3.28;;;;;;;-148.88;87.01;76311.47;4992669;28;20033;-74
2022/07/06 03:04:13;;;;;;;5.88;3.08;;;;;;;-148.88;86.73;76305.38;4992692;28;20387;-74
2022/07/06 03:06:38;;;;;;;3.95;3.03;;;;;;;-148.88;85.69;76299.28;4992645;28;20038;-74
2022/07/06 03:09:04;;;;;;;6.50;3.13;;;;;;;-148.88;86.23;76317.56;4993761;28;20053;-74
2022/07/06 03:11:29;;;;;;;6.38;3.03;;;;;;;-148.88;86.46;76317.56;4992540;28;20027;-74
2022/07/06 03:13:55;;;;;;;7.47;3.30;;;;;;;-148.88;86.59;76325.69;4992448;28;20026;-74
2022/07/06 03:16:20;;;;;;;11.35;3.35;;;;;;;-148.88;87.17;76337.88;4992588;28;20026;-74
2022/07/06 03:18:45;;;;;;;5.63;3.33;;;;;;;-148.88;86.91;76333.81;4993656;28;20026;-74
2022/07/06 03:21:11;;;;;;;4.63;3.00;;;;;;;-148.88;87.09;76343.97;4993686;28;20496;-74
2022/07/06 03:23:36;;;;;;;4.80;3.15;;;;;;;-148.88;86.91;76343.97;4992481;28;20033;-74
2022/07/06 03:26:01;;;;;;;4.05;3.03;;;;;;;-148.88;86.69;76341.94;4994513;28;20097;-74
2022/07/06 03:28:26;;;;;;;8.25;3.22;;;;;;;-148.88;87.12;76368.34;4996381;28;20026;-74
2022/07/06 03:30:52;;;;;;;6.22;3.40;;;;;;;-148.88;86.87;76362.25;4996385;28;20030;-74
2022/07/06 03:33:17;;;;;;;4.72;2.80;;;;;;;-148.88;87.09;76358.19;4997877;28;20435;-74
2022/07/06 03:35:42;;;;;;;6.07;2.90;;;;;;;-148.88;86.92;76374.44;4997467;28;20022;-74
2022/07/06 03:38:08;;;;;;;6.95;2.92;;;;;;;-148.88;87.26;76370.38;4996242;28;20041;-74
2022/07/06 03:40:33;;;;;;;5.75;3.00;;;;;;;-148.88;86.99;76366.31;4997833;28;20415;-76
2022/07/06 03:42:59;;;;;;;5.47;3.08;;;;;;;-148.88;86.61;76370.38;4998247;28;20041;-74
2022/07/06 03:45:24;;;;;;;4.68;3.25;;;;;;;-148.88;87.45;76382.56;4998819;28;20018;-75
2022/07/06 03:47:50;;;;;;;5.00;3.00;;;;;;;-148.88;87.68;76378.50;4998533;28;20511;-74
2022/07/06 03:50:15;;;;;;;6.88;3.30;;;;;;;-148.88;87.90;76386.63;4997501;28;20026;-74
2022/07/06 03:52:40;;;;;;;5.88;3.13;;;;;;;-148.88;88.03;76378.50;4997811;28;20447;-74
2022/07/06 03:55:10;;;;;;;7.03;3.25;;;;;;;-148.88;87.77;76374.44;4996389;28;20026;-74
2022/07/06 03:57:36;;;;;;;5.18;3.05;;;;;;;-148.88;88.50;76396.78;4997742;28;20571;-74
2022/07/06 04:00:03;;;;;;;7.60;3.28;;;;;;;-148.88;88.69;76392.72;4998237;28;20077;-74
2022/07/06 04:02:28;;;;;;;8.45;3.58;;;;;;;-148.88;87.89;76386.63;4998523;28;20029;-75
2022/07/06 04:04:53;;;;;;;7.88;3.40;;;;;;;-148.88;88.28;76394.75;4997777;28;20030;-76
2022/07/06 04:07:19;;;;;;;5.32;2.90;;;;;;;-148.88;88.89;76388.66;4995940;28;20031;-74
2022/07/06 04:09:44;;;;;;;7.47;2.97;;;;;;;-148.88;88.31;76394.75;4995659;28;20049;-76
2022/07/06 04:12:10;;;;;;;5.80;3.67;;;;;;;-148.88;88.26;76394.75;4998302;28;20539;-74
2022/07/06 04:14:35;;;;;;;6.82;3.05;;;;;;;-148.88;89.31;76411.00;4998314;28;20074;-74
2022/07/06 04:17:51;;;;;;;7.10;3.58;;;;;;;-148.88;89.98;76419.16;4997809;28;20515;-74
2022/07/06 04:19:46;;;;;;;6.10;2.85;;;;;;;-148.88;90.02;76417.09;4997688;28;20034;-74
2022/07/06 04:22:11;;;;;;;4.45;3.17;;;;;;;-148.88;90.35;76415.06;4997613;28;20030;-74
2022/07/06 04:24:36;;;;;;;4.47;2.80;;;;;;;-148.88;90.06;76402.88;4997213;28;20022;-74
2022/07/06 04:27:02;;;;;;;8.15;3.13;;;;;;;-148.88;90.66;76415.06;4996417;28;20026;-74
2022/07/06 04:29:27;;;;;;;8.30;3.20;;;;;;;-148.88;90.13;76400.84;4996864;28;20023;-73
2022/07/06 04:31:52;;;;;;;7.25;3.55;;;;;;;-148.88;90.69;76406.94;4997566;28;20049;-74
2022/07/06 04:34:17;;;;;;;7.05;3.17;;;;;;;-148.88;91.10;76394.75;4998168;28;20065;-74
2022/07/06 04:36:43;;;;;;;6.05;3.42;;;;;;;-148.88;91.41;76390.69;4995723;28;20571;-75
2022/07/06 04:39:08;;;;;;;5.50;3.05;;;;;;;-148.88;90.20;76382.56;4997338;28;20080;-74
2022/07/06 04:41:33;;;;;;;6.38;3.00;;;;;;;-148.88;90.26;76378.50;4997294;28;20458;-74
2022/07/06 04:43:59;;;;;;;8.15;3.22;;;;;;;-148.88;90.00;76366.31;4996840;28;20022;-74
2022/07/06 04:46:24;;;;;;;5.57;2.85;;;;;;;-148.88;89.65;76362.25;4996501;28;20049;-75
2022/07/06 04:48:50;;;;;;;9.25;3.50;;;;;;;-148.88;90.05;76362.25;4997436;28;20053;-74
2022/07/06 04:51:15;;;;;;;9.48;3.47;;;;;;;-148.88;89.73;76366.31;4997357;28;20029;-75
2022/07/06 04:53:41;;;;;;;6.57;3.38;;;;;;;-148.88;89.90;76356.16;4998843;28;20097;-74
2022/07/06 04:56:07;;;;;;;4.50;3.20;;;;;;;-148.88;89.85;76358.19;4998315;28;20396;-74
2022/07/06 04:58:32;;;;;;;8.15;3.17;;;;;;;-148.88;89.64;76356.16;5043188;23;20046;-84
2022/07/06 05:00:57;;;;;;;7.30;3.50;;;;;;;-148.88;89.27;76348.03;5001329;28;20023;-85
2022/07/06 05:03:22;;;;;;;6.85;2.80;;;;;;;-148.88;89.67;76343.97;5002080;28;20061;-85
2022/07/06 05:05:48;;;;;;;8.35;3.20;;;;;;;-148.88;89.44;76333.81;5000549;28;20519;-85
2022/07/06 05:08:13;;;;;;;7.70;3.22;;;;;;;-148.88;89.16;76327.72;5001091;28;20092;-85
2022/07/06 05:10:38;;;;;;;6.20;3.30;;;;;;;-148.88;89.38;76327.72;5000172;28;20026;-85
2022/07/06 05:13:04;;;;;;;5.82;3.00;;;;;;;-148.88;90.33;76333.81;4999877;28;20074;-86
2022/07/06 05:15:30;;;;;;;8.57;3.00;;;;;;;-148.88;89.91;76323.66;4999004;28;20105;-86
2022/07/06 05:17:55;;;;;;;7.03;2.97;;;;;;;-148.88;89.80;76313.50;4997634;28;20022;-85
2022/07/06 05:20:20;;;;;;;6.40;3.00;;;;;;;-148.88;90.01;76319.59;4997989;28;20069;-86
2022/07/06 05:22:45;;;;;;;5.90;2.67;;;;;;;-148.88;90.70;76323.66;4997932;28;20105;-86
2022/07/06 05:25:11;;;;;;;6.53;3.10;;;;;;;-148.88;90.04;76323.66;4997346;28;20036;-86
2022/07/06 05:27:36;;;;;;;7.13;3.00;;;;;;;-148.88;90.00;76305.38;4995639;28;20030;-87
2022/07/06 05:30:04;;;;;;;10.05;3.03;;;;;;;-148.88;90.46;76293.19;4996811;28;20034;-86
2022/07/06 05:32:30;;;;;;;6.95;3.15;;;;;;;-148.88;89.80;76287.09;4995671;28;20022;-86
2022/07/06 05:34:55;;;;;;;6.00;2.65;;;;;;;-148.88;89.47;76285.06;4995272;28;20084;-85
2022/07/06 05:37:20;;;;;;;7.35;2.92;;;;;;;-148.88;88.99;76272.88;4997068;28;20030;-85
2022/07/06 05:39:47;;;;;;;6.50;3.03;;;;;;;-148.88;88.17;76260.69;4996473;28;20496;-86
2022/07/06 05:42:12;;;;;;;6.00;2.70;;;;;;;-148.88;87.75;76250.53;4995911;28;20026;-85
2022/07/06 05:50:43;;;;;;;7.57;2.70;;;;;;;-148.88;87.92;76264.75;4999187;28;20056;-85
2022/07/06 05:53:16;;;;;;;5.18;2.83;;;;;;;-148.88;88.49;76260.69;4994782;28;20399;-86
2022/07/06 05:55:41;;;;;;;8.15;3.00;;;;;;;-148.88;88.36;76248.50;4994844;28;20026;-86
2022/07/06 05:58:07;;;;;;;4.95;2.50;;;;;;;-148.88;87.22;76242.41;4995584;28;20057;-86
2022/07/06 06:00:35;;;;;;;5.45;2.70;;;;;;;-148.88;88.06;76246.47;4996871;28;20030;-88
2022/07/06 06:03:01;;;;;;;7.45;2.80;;;;;;;-148.88;89.04;76242.41;4997286;28;20092;-86
2022/07/06 06:05:26;;;;;;;9.00;3.17;;;;;;;-148.88;87.44;76240.38;4996104;28;20476;-87
2022/07/06 06:07:54;;;;;;;6.13;2.45;;;;;;;-148.88;87.11;76236.31;4996536;28;20555;-86
2022/07/06 06:10:21;;;;;;;7.00;2.70;;;;;;;-148.88;86.03;76224.13;4995155;28;20449;-86
2022/07/06 06:12:47;;;;;;;7.53;2.92;;;;;;;-148.88;86.30;76216.00;4994035;28;20492;-85
2022/07/06 06:15:13;;;;;;;6.28;2.72;;;;;;;-148.88;85.85;76195.69;4995051;28;20060;-88
2022/07/06 06:17:39;;;;;;;7.13;2.65;;;;;;;-148.88;84.95;76207.88;4995119;28;20026;-86
2022/07/06 06:20:06;;;;;;;4.05;2.38;;;;;;;-148.88;84.15;76203.81;4993694;28;20377;-85
2022/07/06 06:22:50;;;;;;;5.28;2.45;;;;;;;-148.88;83.45;76203.81;4994072;28;20038;-86
2022/07/06 06:25:17;;;;;;;5.78;2.05;;;;;;;-148.88;82.87;76199.75;4993746;28;20448;-85
2022/07/06 06:27:43;;;;;;;7.38;2.80;;;;;;;-148.88;83.25;76203.81;4993723;28;20041;-86
2022/07/06 06:30:09;;;;;;;5.68;2.35;;;;;;;-148.88;84.44;76195.69;4994635;28;20022;-85
2022/07/06 06:32:35;;;;;;;6.47;2.42;;;;;;;-148.88;84.71;76207.88;4994106;28;20477;-85
2022/07/06 06:35:00;;;;;;;5.57;2.63;;;;;;;-148.88;84.24;76187.56;4993678;28;20165;-86
2022/07/06 06:37:25;;;;;;;6.30;2.15;;;;;;;-148.88;82.89;76167.25;4993912;28;20420;-86
2022/07/06 06:39:51;;;;;;;9.40;2.65;;;;;;;-148.88;82.00;76171.31;4993593;28;20057;-86
2022/07/06 06:42:16;;;;;;;5.13;2.17;;;;;;;-148.88;82.48;76159.13;4993937;28;20037;-86
2022/07/06 06:44:41;;;;;;;5.53;2.55;;;;;;;-148.88;82.59;76163.19;4995265;28;20109;-87
2022/07/06 06:47:06;;;;;;;5.25;2.30;;;;;;;-148.88;81.49;76157.09;4994700;28;20026;-86
2022/07/06 06:49:32;;;;;;;6.68;2.25;;;;;;;-148.88;80.99;76151.00;4995062;28;20524;-86
2022/07/06 06:51:57;;;;;;;3.90;2.10;;;;;;;-148.88;79.24;76146.94;4994552;28;20069;-86
2022/07/06 06:54:22;;;;;;;6.82;2.10;;;;;;;-148.88;79.24;76153.03;4993557;28;20030;-86
2022/07/06 06:56:47;;;;;;;6.13;2.00;;;;;;;-148.88;79.71;76151.00;4993111;28;20023;-86
2022/07/06 06:59:13;;;;;;;5.28;2.13;;;;;;;-148.88;81.24;76151.00;4993169;28;20030;-87
2022/07/06 07:01:38;;;;;;;5.03;2.05;;;;;;;-148.88;80.12;76126.59;4992370;28;20024;-87
2022/07/06 07:04:04;;;;;;;6.38;1.90;;;;;;;-148.88;79.24;76108.31;4993738;28;20022;-86
2022/07/06 07:06:29;;;;;;;5.35;2.13;;;;;;;-148.88;78.89;76124.56;4994484;28;20485;-85
2022/07/06 07:08:55;;;;;;;4.80;1.88;;;;;;;-148.88;79.34;76120.53;4993303;28;20034;-87
2022/07/06 07:11:21;;;;;;;5.93;1.92;;;;;;;-148.88;78.51;76098.16;4993555;28;20061;-87
2022/07/06 07:13:46;;;;;;;5.65;1.60;;;;;;;-148.88;77.51;76090.03;4994424;28;20022;-86
2022/07/06 07:16:11;;;;;;;5.90;1.40;;;;;;;-148.88;75.54;76100.19;4993100;28;20117;-87
2022/07/06 07:18:37;;;;;;;5.65;1.52;;;;;;;-148.88;75.23;76081.91;4992972;28;20033;-86
2022/07/06 07:21:02;;;;;;;6.60;1.73;;;;;;;-148.88;75.55;76063.63;4994535;28;20026;-87
2022/07/06 07:23:28;;;;;;;5.13;1.88;;;;;;;-148.88;74.04;76053.47;4994144;28;20113;-86
2022/07/06 07:25:53;;;;;;;5.00;1.40;;;;;;;-148.88;74.74;76045.34;4993684;28;20026;-86
2022/07/06 07:28:18;;;;;;;4.90;1.20;;;;;;;-148.88;73.03;76045.34;4994000;28;20062;-86
2022/07/06 07:30:43;;;;;;;4.05;1.35;;;;;;;-148.88;73.14;76041.28;4992874;28;20030;-86
2022/07/06 07:33:09;;;;;;;7.10;1.40;;;;;;;-148.88;71.45;76049.41;4992936;28;20404;-86
2022/07/06 07:35:34;;;;;;;8.25;1.60;;;;;;;-148.88;72.25;76051.44;4992930;28;20038;-86
2022/07/06 07:37:59;;;;;;;4.15;1.30;;;;;;;-148.88;72.08;76037.22;4994828;28;20113;-85
2022/07/06 07:40:25;;;;;;;5.10;1.35;;;;;;;-148.88;72.71;76037.22;4993665;28;20026;-86
2022/07/06 07:42:50;;;;;;;4.20;1.40;;;;;;;-148.88;72.07;76049.41;4994419;28;20037;-86
2022/07/06 07:45:16;;;;;;;3.53;1.17;;;;;;;-148.88;71.73;76045.34;4993224;28;20503;-86
2022/07/06 07:47:41;;;;;;;5.03;1.42;;;;;;;-148.88;70.20;76037.22;4994627;28;20054;-86
2022/07/06 07:50:07;;;;;;;5.65;1.70;;;;;;;-148.88;69.68;76016.91;4993000;28;20492;-87
2022/07/06 07:52:32;;;;;;;4.97;1.20;;;;;;;-148.88;68.14;76025.03;4992959;28;20511;-86
2022/07/06 07:54:58;;;;;;;3.75;1.27;;;;;;;-148.88;68.39;76000.66;4994307;28;20027;-87
2022/07/06 07:57:23;;;;;;;7.05;1.27;;;;;;;-148.88;68.71;76016.91;4993650;28;20069;-87
2022/07/06 07:59:49;;;;;;;6.78;1.48;;;;;;;-148.88;65.43;76027.06;4993146;28;20061;-87
2022/07/06 08:02:14;;;;;;;4.32;1.20;;;;;;;-148.88;67.29;76029.09;4993424;28;20018;-89
2022/07/06 08:04:40;;;;;;;3.88;1.02;;;;;;;-148.88;69.88;76004.72;4994404;28;20034;-89
2022/07/06 08:07:06;;;;;;;4.47;0.90;;;;;;;-148.88;65.63;75972.22;4996044;28;20031;-87
2022/07/06 08:09:31;;;;;;;3.35;0.80;;;;;;;-148.88;63.17;75955.97;4994557;28;20024;-89
2022/07/06 08:11:56;;;;;;;4.43;1.45;;;;;;;-148.88;62.06;75955.97;4995250;28;20027;-88
2022/07/06 08:14:22;;;;;;;3.60;1.05;;;;;;;-148.88;61.17;75947.84;4998705;28;20101;-88
2022/07/06 08:16:47;;;;;;;4.80;1.10;;;;;;;-148.88;62.18;75955.97;4998142;28;20030;-87
2022/07/06 08:19:15;;;;;;;4.18;0.95;;;;;;;-148.88;61.95;75962.06;4996592;28;20030;-89
2022/07/06 08:21:41;;;;;;;3.22;1.08;;;;;;;-148.88;62.37;75951.91;4997264;28;20026;-89
2022/07/06 08:24:07;;;;;;;4.22;0.95;;;;;;;-148.88;61.06;75935.66;4997465;28;20117;-89
2022/07/06 08:26:33;;;;;;;3.95;0.93;;;;;;;-148.88;63.18;75951.91;4997297;28;20058;-88
2022/07/06 08:28:58;;;;;;;6.38;1.13;;;;;;;-148.88;65.24;75953.94;4998908;28;20073;-88
2022/07/06 08:31:24;;;;;;;3.75;0.95;;;;;;;-148.88;65.29;75935.66;4998030;28;20045;-89
2022/07/06 08:33:52;;;;;;;5.00;1.30;;;;;;;-148.88;65.93;75955.97;4997898;28;20096;-88
2022/07/06 08:36:18;;;;;;;4.30;0.90;;;;;;;-148.88;66.49;75964.09;4996739;28;20030;-88
2022/07/06 08:38:43;;;;;;;4.82;1.10;;;;;;;-148.88;64.63;75958.00;4996624;28;20026;-87
2022/07/06 08:41:09;;;;;;;3.15;0.85;;;;;;;-148.88;64.54;75949.88;4996295;28;20038;-85
2022/07/06 08:43:35;;;;;;;3.90;1.00;;;;;;;-148.88;62.51;75947.84;4995430;28;20022;-88
2022/07/06 08:46:01;;;;;;;2.88;0.90;;;;;;;-148.88;62.55;75933.63;4996131;28;20064;-87
2022/07/06 08:48:29;;;;;;;8.32;1.05;;;;;;;-148.88;61.75;75925.50;4995337;28;20048;-90
2022/07/06 08:50:54;;;;;;;4.68;1.05;;;;;;;-148.88;62.30;75921.44;4995493;28;20109;-89
2022/07/06 08:53:20;;;;;;;5.45;1.17;;;;;;;-148.88;62.41;75917.38;4996180;28;20117;-89
2022/07/06 08:55:47;;;;;;;3.53;0.90;;;;;;;-148.88;62.00;75913.31;4995586;28;20112;-89
2022/07/06 08:58:13;;;;;;;4.10;0.95;;;;;;;-148.88;61.65;75874.72;4995963;28;20026;-88
2022/07/06 09:00:40;;;;;;;3.67;1.05;;;;;;;-148.88;62.42;75856.44;4996861;28;20030;-87
2022/07/06 09:03:07;;;;;;;4.90;0.93;;;;;;;-148.88;59.44;75801.59;4996031;28;20038;-89
2022/07/06 09:05:32;;;;;;;2.03;0.70;;;;;;;-148.88;58.64;75795.50;4996972;28;20030;-87
2022/07/06 09:07:58;;;;;;;3.53;0.93;;;;;;;-148.88;58.36;75775.19;4997991;28;20026;-88
2022/07/06 09:10:24;;;;;;;2.17;0.73;;;;;;;-148.88;56.07;75777.22;4995725;28;20030;-89
2022/07/06 09:12:50;;;;;;;2.45;0.70;;;;;;;-148.88;56.41;75801.59;4998087;28;20022;-89
2022/07/06 09:15:18;;;;;;;2.95;0.90;;;;;;;-148.88;56.88;75797.53;4997631;28;20089;-90
2022/07/06 09:17:44;;;;;;;2.50;0.73;;;;;;;-148.88;52.91;75809.72;4997775;28;20112;-87
2022/07/06 09:20:13;;;;;;;3.65;0.70;;;;;;;-148.88;53.26;75830.03;4998084;28;20436;-88
2022/07/06 09:22:39;;;;;;;3.22;0.70;;;;;;;-148.88;55.18;75852.38;4995365;28;20091;-86
2022/07/06 09:25:08;;;;;;;3.75;0.70;;;;;;;-148.88;57.15;75864.56;4995125;28;20487;-87
2022/07/06 09:27:42;;;;;;;3.22;0.93;;;;;;;-148.88;58.53;75893.00;4995583;28;20030;-86
2022/07/06 09:30:09;;;;;;;5.47;1.30;;;;;;;-148.88;59.75;75923.47;4996147;28;20427;-86
2022/07/06 09:32:45;;;;;;;5.18;0.95;;;;;;;-148.88;59.53;75927.53;4999644;28;20072;-86
2022/07/06 09:35:26;;;;;;;4.25;0.95;;;;;;;-148.88;60.99;75958.00;4995274;28;20120;-87
2022/07/06 09:38:04;;;;;;;5.78;0.80;;;;;;;-148.88;60.54;75970.19;4995775;28;20027;-86
2022/07/06 09:40:38;;;;;;;4.38;0.98;;;;;;;-148.88;60.69;75978.31;4995923;28;20080;-87
2022/07/06 09:43:18;;;;;;;3.58;0.90;;;;;;;-148.88;62.26;75976.28;4995438;28;20076;-86
2022/07/06 09:45:53;;;;;;;4.80;1.02;;;;;;;-148.88;63.71;75988.47;4996631;28;20030;-86
2022/07/06 09:48:27;;;;;;;8.35;2.25;;;;;;;-148.88;63.79;75980.34;4996729;28;20030;-86
2022/07/06 09:50:55;;;;;;;5.03;1.25;;;;;;;-148.88;64.63;76006.75;4997752;28;20034;-85
2022/07/06 09:53:22;;;;;;;5.03;1.00;;;;;;;-148.88;64.00;75984.41;4997569;28;20029;-87
2022/07/06 09:55:48;;;;;;;5.93;1.30;;;;;;;-148.88;64.36;75984.41;4997253;28;20026;-87
2022/07/06 09:58:15;;;;;;;3.40;1.15;;;;;;;-148.88;65.31;75994.56;4995970;28;20122;-87
2022/07/06 10:00:42;;;;;;;4.03;1.20;;;;;;;-148.88;65.61;75982.38;4996009;28;20172;-86
2022/07/06 10:03:07;;;;;;;4.30;1.40;;;;;;;-148.88;65.28;75970.19;4994802;28;20033;-87
2022/07/06 10:05:35;;;;;;;3.63;1.00;;;;;;;-148.88;64.76;75972.22;4996334;28;20022;-86
2022/07/06 10:08:01;;;;;;;7.40;1.90;;;;;;;-148.88;64.56;75972.22;4994555;28;20029;-86
2022/07/06 10:10:29;;;;;;;6.50;1.20;;;;;;;-148.88;63.85;75955.97;4995728;28;20034;-87
2022/07/06 10:12:56;;;;;;;4.80;1.10;;;;;;;-148.88;63.06;75939.72;4994379;28;20034;-86
2022/07/06 10:15:26;;;;;;;2.53;1.08;;;;;;;-148.88;61.77;75943.78;4994955;28;20026;-87
2022/07/06 10:17:52;;;;;;;4.80;1.20;;;;;;;-148.88;61.82;75911.28;4994884;28;20022;-86
2022/07/06 10:20:19;;;;;;;4.07;1.20;;;;;;;-148.88;62.30;75905.19;4994629;28;20018;-87
2022/07/06 10:22:47;;;;;;;4.45;1.05;;;;;;;-148.88;62.33;75870.66;4995835;28;20026;-88
2022/07/06 10:25:15;;;;;;;3.70;1.05;;;;;;;-148.88;62.62;75828.00;4996498;28;20033;-88
2022/07/06 10:27:42;;;;;;;6.10;1.50;;;;;;;-148.88;61.73;75828.00;4994545;28;20363;-86
2022/07/06 10:30:08;;;;;;;4.50;1.27;;;;;;;-148.88;59.69;75809.72;4993758;28;20022;-86
2022/07/06 10:32:35;;;;;;;2.85;1.17;;;;;;;-148.88;59.33;75777.22;4994165;28;20026;-87
2022/07/06 10:35:04;;;;;;;3.97;1.17;;;;;;;-148.88;56.84;75728.47;4994475;28;20096;-85
2022/07/06 10:37:30;;;;;;;5.95;1.00;;;;;;;-148.88;56.06;75695.97;4995145;28;20396;-88
2022/07/06 10:42:53;;;;;;;3.38;1.02;;;;;;;-148.88;51.70;75659.41;4995836;28;20033;-87
2022/07/06 10:45:27;;;;;;;3.85;0.90;;;;;;;-148.88;53.44;75716.28;4996443;28;20476;-85
2022/07/06 10:48:11;;;;;;;4.57;1.15;;;;;;;-148.88;53.18;75744.72;4993946;28;20113;-87
2022/07/06 10:50:46;;;;;;;;;;;;;;;-148.88;51.91;75698.00;4996521;28;20018;-87
2022/07/06 10:53:21;;;;;;;2.08;0.80;;;;;;;-148.88;51.60;75671.59;4995296;28;19910;-86
2022/07/06 10:55:50;;;;;;;4.95;1.00;;;;;;;-148.88;49.70;75698.00;4995825;28;20094;-85
2022/07/06 11:00:52;;;;;;;2.65;0.90;;;;;;;-148.88;51.53;75724.41;4992983;28;20110;-75
2022/07/06 11:03:36;;;;;;;3.00;0.88;;;;;;;-148.88;53.15;75754.88;4993920;28;20035;-74
2022/07/06 11:06:07;;;;;;;5.60;1.00;;;;;;;-148.88;51.47;75736.59;4994562;28;20034;-74
2022/07/06 11:08:55;;;;;;;5.03;0.77;;;;;;;-148.88;52.61;75771.13;4993720;28;20026;-74
2022/07/06 11:11:25;;;;;;;3.83;0.82;;;;;;;-148.88;52.47;75763.00;4994806;28;20054;-73
2022/07/06 11:14:01;;;;;;;2.97;0.85;;;;;;;-148.88;53.79;75789.41;4993112;28;20165;-73
2022/07/06 11:16:28;;;;;;;2.65;0.80;;;;;;;-148.88;54.72;75785.34;4993315;28;20109;-74
2022/07/06 11:19:23;;;;;;;3.20;0.93;;;;;;;-148.88;54.92;75779.25;4994339;28;20030;-73
2022/07/06 11:22:04;;;;;;;6.10;1.13;;;;;;;-148.88;55.30;75775.19;4993294;28;20025;-73
2022/07/06 11:24:31;;;;;;;5.80;1.00;;;;;;;-148.88;53.71;75765.03;4993171;28;20070;-73
2022/07/06 11:26:58;;;;;;;3.85;1.02;;;;;;;-148.88;54.00;75740.66;4994219;28;20030;-73